This is the latest recevied weather packets stored in our database for station/object SR9WXJ. If no packets are shown the sender has not sent any weather packets the latest 1 day(s).
| Time | Temp. | Humidity | Pressure | Rain* | Wind** | Luminosity | Snow |
|---|---|---|---|---|---|---|---|
| 1777997379 | 23.33° C | 100% | 789.9 hPa | - | 1.79 m/s, 162° | - | - |
| 1777997076 | 22.78° C | 100% | 789.9 hPa | - | 1.79 m/s, 187° | - | - |
| 1777996765 | 23.33° C | 100% | 789.9 hPa | - | 1.79 m/s, 164° | - | - |
| 1777996454 | 23.33° C | 100% | 789.9 hPa | - | 2.24 m/s, 166° | - | - |
| 1777996143 | 23.33° C | 100% | 789.9 hPa | - | 1.79 m/s, 129° | - | - |
| 1777995833 | 23.33° C | 100% | 789.9 hPa | - | 1.34 m/s, 143° | - | - |
| 1777995522 | 23.33° C | 100% | 789.9 hPa | - | 1.79 m/s, 189° | - | - |
| 1777995222 | 23.89° C | 100% | 789.9 hPa | - | 1.34 m/s, 164° | - | - |
| 1777994601 | 23.89° C | 100% | 789.9 hPa | - | 1.34 m/s, 231° | - | - |
| 1777994291 | 23.89° C | 100% | 789.9 hPa | - | 0.89 m/s, 160° | - | - |
| 1777993980 | 23.89° C | 100% | 789.9 hPa | - | 1.34 m/s, 211° | - | - |
| 1777993680 | 23.89° C | 100% | 789.9 hPa | - | 0.89 m/s, 142° | - | - |
| 1777993369 | 23.89° C | 100% | 789.9 hPa | - | 1.79 m/s, 166° | - | - |
| 1777993058 | 23.89° C | 100% | 789.9 hPa | - | 1.79 m/s, 166° | - | - |
| 1777992747 | 23.89° C | 100% | 789.9 hPa | - | 1.79 m/s, 169° | - | - |
| 1777992437 | 24.44° C | 100% | 789.9 hPa | - | 2.24 m/s, 186° | - | - |
| 1777992127 | 25.56° C | 100% | 789.9 hPa | - | 1.79 m/s, 189° | - | - |
| 1777991827 | 25° C | 100% | 789.9 hPa | - | 0.89 m/s, 159° | - | - |
| 1777991516 | 25° C | 100% | 789.9 hPa | - | 1.79 m/s, 165° | - | - |
| 1777991205 | 25.56° C | 100% | 789.9 hPa | - | 1.79 m/s, 157° | - | - |
| 1777990895 | 25° C | 100% | 789.9 hPa | - | 2.68 m/s, 159° | - | - |
| 1777990584 | 25.56° C | 100% | 789.9 hPa | - | 1.79 m/s, 146° | - | - |
| 1777990274 | 25.56° C | 100% | 789.9 hPa | - | 2.68 m/s, 167° | - | - |
| 1777989974 | 25.56° C | 100% | 789.9 hPa | - | 1.79 m/s, 157° | - | - |
| 1777989663 | 25.56° C | 100% | 789.9 hPa | - | 1.34 m/s, 147° | - | - |
* Rain since midnight (hover to see other rain measurements)
** Current wind speed in m/s (hover to see current wind gust speed)